TFM - Tactical Decision Aid
ID: Runway Winds: CIG/VIS Threshold:

KCLE - Cleveland/Hopkins In, OH, US

Updated at: 0255 UTC 12 May 2021
Latest TAF at: 2320 UTC 11 May 2021

TAF Board

Time0251Z 12/03Z 12/04Z 12/05Z 12/06Z 12/07Z 12/08Z 12/09Z 12/10Z 12/11Z 12/12Z 12/13Z 12/14Z 12/15Z>>
Type OBS PRVL PRVL PRVL PRVL PRVL PRVL PRVL PRVL PRVL PRVL PRVL PRVL PRVL
VIS 10 >6 >6 >6 >6 >6 >6 >6 >6 >6 >6 >6 >6 >6
CIG -- -- -- -- -- -- -- -- -- -- -- -- -- --
Cover FEW FEW FEW FEW FEW FEW FEW FEW FEW FEW FEW FEW FEW FEW
FltCat VFR VFR VFR VFR VFR VFR VFR VFR VFR VFR VFR VFR VFR VFR
WX -- -- -- -- -- -- -- -- -- -- -- -- -- --
WDir 290 330 330 330 330 330 330 330 330 330 330 330 330 330
WSpd 5 5 5 5 5 5 5 5 5 5 5 5 5 5
WGst -- -- -- -- -- -- -- -- -- -- -- -- -- --

TDA Impact Legend

  None Marginal Slight Moderate High
Visibility (sm) >5 3≤X≤5 1≤X<3 0.5≤X<1 <0.5
Ceiling (100 ft) >30 10≤X≤30 4≤X<10 2≤X<4 <2
Wind Speed (kt) <15 15≤X<25 25≤X<30 ≥30
Wind Gust (kt) <15 15≤X<25 25≤X<35 ≥35
Weather No Wx Reported VCTS -TS,-FZRA TS,FZRA +TS,+FZRA
TAF
KCLE 112320Z 1200/1306 33006KT P6SM VCSH SCT110
  FM120100 33005KT P6SM FEW150


METAR
KCLE 120251Z 29005KT 10SM FEW070 06/M01 A3030 RMK AO2 SLP282 T00611006 53023
KCLE 120151Z 24004KT 10SM CLR 06/M01 A3027 RMK AO2 SLP271 T00611011
KCLE 120051Z 29005KT 10SM CLR 08/M01 A3025 RMK AO2 SLP262 T00831011
KCLE 112351Z 31010G16KT 10SM FEW060 10/M02 A3024 RMK AO2 SLP258 T01001022 10122 20089 53008

Radar Display
Forecast Discussion